Pagrindinis puslapis
METAR-TAF:

METAR-TAF

Oro uostai :

Lar, Iranas

platuma: 27-40-26N, ilguma: 054-22-53E, Aukštis: 792 m

Dabartinis oras

Ataskaita buvo paskelbta 1 valandą ir 46 minutes, ne 21:00 UTC
Ramus vėjas
Temperatūra 30°C
Drėgmė 35%
Slėgis 1006 hPa
Matomumas 10 km arba daugiau
nėra debesų žemiau 1500 m ir nėra kamuolinių lietaus debesų

METAR: OISL 052100Z 00000KT CAVOK 30/13 Q1006

Laikas: 03:16 (22:46 UTC)

Prognozė

Ataskaita buvo paskelbta 5 valandos ir 16 minutes, ne 17:30 UTC
Prognozė galioja nuo 05 metu 18 UTC su 06 metu 24 UTC
Vėjas 8 kt iš Pietų/Pietryčių
Matomumas: 8000 m
Mažai debesys ne aukštis 4000 ft

TAF: OISL 051730Z 0518/0624 16008KT 8000 FEW040

Orai ataskaitas ir orų prognozės (METAR, TAF).

turimą stotys yra geltonos ir raudonos taškus žemėlapyje.

Perkelti pele per norėdami pamatyti stoties vardą.

Tada spustelėkite, norėdami matyti oro stebėjimo ir prognozės.

Norėdami pakeisti žemėlapį: spustelėkite ant žalios mygtukų su juodo kryžiaus žemyn,; žalią mygtuką su brūkšneliu, jei norite nutolinti; arba žalių rodyklių gretimoms žemėlapius.


METAR-TAF: